CCA127 ZGHA-ZGGG
Flight info
| Callsign | CCA127 |
|---|---|
| Flight time | 0h 58m |
| Altitude | 35100 |
| Route | UBM7X UBMOG W615 IDAXI R473 BEMAG V5 ENVIP ENVIP8 |
| Aircraft | A339/H-SADE1E2E3GHIJ3J5M1P2RWXY/LB2D1 |
Departure
| Time | 2026-04-27 23:09 |
|---|---|
| Airport | Changsha Huanghua International Airport (ZGHA) |
Arrival
| Time | 2026-04-28 00:07 |
|---|---|
| Airport | Guangzhou Baiyun International Airport (ZGGG) |
| Time | Latitude | Longitude | Altitude | Speed | Heading |
|---|---|---|---|---|---|
| 2026-04-27 22:30 | 28.18682 | 113.21596 | 235 ft | 0 kts | 313° |
| 2026-04-27 22:57 | 28.18678 | 113.21600 | 235 ft | 2 kts | 313° |
| 2026-04-27 22:58 | 28.18668 | 113.21613 | 235 ft | 2 kts | 313° |
| 2026-04-27 22:58 | 28.18657 | 113.21625 | 235 ft | 2 kts | 313° |
| 2026-04-27 22:58 | 28.18647 | 113.21637 | 235 ft | 2 kts | 313° |
| 2026-04-27 22:58 | 28.18636 | 113.21649 | 235 ft | 2 kts | 313° |
| 2026-04-27 22:59 | 28.18626 | 113.21662 | 235 ft | 2 kts | 324° |
| 2026-04-27 22:59 | 28.18612 | 113.21668 | 235 ft | 2 kts | 359° |
| 2026-04-27 22:59 | 28.18597 | 113.21665 | 235 ft | 2 kts | 27° |
| 2026-04-27 22:59 | 28.18585 | 113.21654 | 235 ft | 2 kts | 57° |
| 2026-04-27 23:00 | 28.18579 | 113.21634 | 235 ft | 0 kts | 85° |
| 2026-04-27 23:00 | 28.18579 | 113.21633 | 235 ft | 0 kts | 85° |
| 2026-04-27 23:00 | 28.18579 | 113.21634 | 235 ft | 0 kts | 85° |
| 2026-04-27 23:02 | 28.18580 | 113.21647 | 235 ft | 4 kts | 85° |
| 2026-04-27 23:02 | 28.18584 | 113.21699 | 235 ft | 13 kts | 85° |
| 2026-04-27 23:03 | 28.18578 | 113.21828 | 235 ft | 7 kts | 98° |
| 2026-04-27 23:03 | 28.18571 | 113.21845 | 235 ft | 2 kts | 121° |
| 2026-04-27 23:03 | 28.18517 | 113.21851 | 235 ft | 16 kts | 192° |
| 2026-04-27 23:03 | 28.18381 | 113.21823 | 235 ft | 19 kts | 178° |
| 2026-04-27 23:04 | 28.18269 | 113.21828 | 235 ft | 12 kts | 177° |
| 2026-04-27 23:04 | 28.18180 | 113.21835 | 235 ft | 13 kts | 176° |
| 2026-04-27 23:04 | 28.18084 | 113.21841 | 235 ft | 14 kts | 176° |
| 2026-04-27 23:04 | 28.17984 | 113.21847 | 235 ft | 14 kts | 176° |
| 2026-04-27 23:05 | 28.17878 | 113.21854 | 235 ft | 15 kts | 176° |
| 2026-04-27 23:05 | 28.17776 | 113.21864 | 235 ft | 11 kts | 156° |
| 2026-04-27 23:05 | 28.17743 | 113.21934 | 236 ft | 10 kts | 90° |
| 2026-04-27 23:05 | 28.17749 | 113.22025 | 235 ft | 12 kts | 80° |
| 2026-04-27 23:06 | 28.17763 | 113.22147 | 235 ft | 17 kts | 84° |
| 2026-04-27 23:06 | 28.17735 | 113.22240 | 235 ft | 10 kts | 161° |
| 2026-04-27 23:06 | 28.17661 | 113.22252 | 235 ft | 11 kts | 178° |
| 2026-04-27 23:06 | 28.17578 | 113.22255 | 235 ft | 12 kts | 178° |
| 2026-04-27 23:07 | 28.17506 | 113.22283 | 236 ft | 10 kts | 124° |
| 2026-04-27 23:07 | 28.17494 | 113.22361 | 235 ft | 10 kts | 88° |
| 2026-04-27 23:07 | 28.17500 | 113.22435 | 235 ft | 6 kts | 63° |
| 2026-04-27 23:07 | 28.17546 | 113.22452 | 236 ft | 7 kts | 354° |
| 2026-04-27 23:08 | 28.17593 | 113.22446 | 235 ft | 0 kts | 356° |
| 2026-04-27 23:08 | 28.17596 | 113.22446 | 235 ft | 0 kts | 356° |
| 2026-04-27 23:08 | 28.17709 | 113.22439 | 236 ft | 51 kts | 356° |
| 2026-04-27 23:08 | 28.18346 | 113.22397 | 236 ft | 127 kts | 357° |
| 2026-04-27 23:09 | 28.19439 | 113.22325 | 249 ft | 185 kts | 356° |
| 2026-04-27 23:09 | 28.20780 | 113.22244 | 875 ft | 196 kts | 356° |
| 2026-04-27 23:09 | 28.22097 | 113.22102 | 1965 ft | 187 kts | 355° |
| 2026-04-27 23:09 | 28.23378 | 113.21950 | 2719 ft | 194 kts | 355° |
| 2026-04-27 23:10 | 28.24768 | 113.21796 | 3159 ft | 210 kts | 355° |
| 2026-04-27 23:10 | 28.26292 | 113.21638 | 3590 ft | 228 kts | 355° |
| 2026-04-27 23:10 | 28.27912 | 113.21480 | 4153 ft | 239 kts | 355° |
| 2026-04-27 23:10 | 28.29593 | 113.21362 | 4881 ft | 243 kts | 355° |
| 2026-04-27 23:11 | 28.31285 | 113.21252 | 5583 ft | 247 kts | 355° |
| 2026-04-27 23:11 | 28.33028 | 113.21139 | 6271 ft | 251 kts | 354° |
| 2026-04-27 23:11 | 28.34783 | 113.21027 | 6950 ft | 255 kts | 354° |
| 2026-04-27 23:11 | 28.36561 | 113.21041 | 7624 ft | 260 kts | 12° |
| 2026-04-27 23:12 | 28.38118 | 113.22024 | 8288 ft | 264 kts | 49° |
| 2026-04-27 23:12 | 28.38906 | 113.23855 | 8928 ft | 264 kts | 84° |
| 2026-04-27 23:12 | 28.38989 | 113.25954 | 9592 ft | 266 kts | 91° |
| 2026-04-27 23:12 | 28.39013 | 113.28065 | 10214 ft | 270 kts | 90° |
| 2026-04-27 23:13 | 28.39059 | 113.30181 | 10827 ft | 273 kts | 90° |
| 2026-04-27 23:13 | 28.39134 | 113.32333 | 11451 ft | 276 kts | 89° |
| 2026-04-27 23:13 | 28.39224 | 113.34503 | 12064 ft | 279 kts | 89° |
| 2026-04-27 23:13 | 28.39326 | 113.36724 | 12630 ft | 282 kts | 89° |
| 2026-04-27 23:14 | 28.39431 | 113.38936 | 13231 ft | 285 kts | 89° |
| 2026-04-27 23:14 | 28.39538 | 113.41209 | 13836 ft | 288 kts | 89° |
| 2026-04-27 23:14 | 28.39622 | 113.43464 | 14425 ft | 290 kts | 95° |
| 2026-04-27 23:14 | 28.39088 | 113.45642 | 14966 ft | 285 kts | 127° |
| 2026-04-27 23:15 | 28.37694 | 113.47181 | 15515 ft | 281 kts | 155° |
| 2026-04-27 23:15 | 28.35830 | 113.47822 | 15813 ft | 287 kts | 178° |
| 2026-04-27 23:15 | 28.33793 | 113.47905 | 16086 ft | 302 kts | 180° |
| 2026-04-27 23:15 | 28.31630 | 113.47985 | 16339 ft | 317 kts | 180° |
| 2026-04-27 23:16 | 28.29366 | 113.48090 | 16613 ft | 333 kts | 180° |
| 2026-04-27 23:16 | 28.26980 | 113.48215 | 16878 ft | 347 kts | 180° |
| 2026-04-27 23:16 | 28.24518 | 113.48350 | 17329 ft | 354 kts | 179° |
| 2026-04-27 23:16 | 28.22071 | 113.48491 | 17891 ft | 357 kts | 179° |
| 2026-04-27 23:17 | 28.19576 | 113.48637 | 18458 ft | 361 kts | 179° |
| 2026-04-27 23:17 | 28.17054 | 113.48788 | 19009 ft | 365 kts | 177° |
| 2026-04-27 23:17 | 28.14537 | 113.49451 | 19502 ft | 375 kts | 157° |
| 2026-04-27 23:17 | 28.12379 | 113.51109 | 20006 ft | 384 kts | 136° |
| 2026-04-27 23:18 | 28.10816 | 113.53590 | 20509 ft | 392 kts | 117° |
| 2026-04-27 23:18 | 28.10055 | 113.55488 | 20856 ft | 394 kts | 115° |
| 2026-04-27 23:18 | 28.08952 | 113.58325 | 21325 ft | 399 kts | 115° |
| 2026-04-27 23:18 | 28.07815 | 113.61212 | 21801 ft | 403 kts | 115° |
| 2026-04-27 23:19 | 28.06639 | 113.64141 | 22280 ft | 406 kts | 116° |
| 2026-04-27 23:19 | 28.05171 | 113.66871 | 22689 ft | 407 kts | 134° |
| 2026-04-27 23:19 | 28.02971 | 113.68841 | 23126 ft | 404 kts | 155° |
| 2026-04-27 23:19 | 28.00292 | 113.69852 | 23584 ft | 400 kts | 176° |
| 2026-04-27 23:20 | 27.97531 | 113.69851 | 24030 ft | 397 kts | 189° |
| 2026-04-27 23:20 | 27.94784 | 113.69565 | 24482 ft | 400 kts | 189° |
| 2026-04-27 23:20 | 27.91995 | 113.69279 | 24916 ft | 404 kts | 189° |
| 2026-04-27 23:20 | 27.89151 | 113.69003 | 25364 ft | 407 kts | 189° |
| 2026-04-27 23:21 | 27.86306 | 113.68738 | 25801 ft | 410 kts | 189° |
| 2026-04-27 23:21 | 27.83461 | 113.68477 | 26225 ft | 413 kts | 189° |
| 2026-04-27 23:21 | 27.80586 | 113.68219 | 26649 ft | 416 kts | 189° |
| 2026-04-27 23:21 | 27.77666 | 113.67956 | 27089 ft | 418 kts | 189° |
| 2026-04-27 23:22 | 27.74775 | 113.67698 | 27504 ft | 420 kts | 189° |
| 2026-04-27 23:22 | 27.71828 | 113.67434 | 27907 ft | 423 kts | 190° |
| 2026-04-27 23:22 | 27.68898 | 113.67174 | 28296 ft | 425 kts | 190° |
| 2026-04-27 23:22 | 27.65902 | 113.66917 | 28674 ft | 429 kts | 188° |
| 2026-04-27 23:23 | 27.62907 | 113.66814 | 29019 ft | 435 kts | 185° |
| 2026-04-27 23:23 | 27.59848 | 113.66871 | 29389 ft | 438 kts | 184° |
| 2026-04-27 23:23 | 27.56778 | 113.66952 | 29761 ft | 441 kts | 184° |
| 2026-04-27 23:23 | 27.53722 | 113.67035 | 30131 ft | 443 kts | 184° |
| 2026-04-27 23:24 | 27.50607 | 113.67121 | 30558 ft | 444 kts | 184° |
| 2026-04-27 23:24 | 27.47516 | 113.67218 | 31054 ft | 443 kts | 183° |
| 2026-04-27 23:24 | 27.44441 | 113.67466 | 31415 ft | 447 kts | 180° |
| 2026-04-27 23:24 | 27.41316 | 113.67909 | 31745 ft | 451 kts | 178° |
| 2026-04-27 23:25 | 27.38223 | 113.68402 | 32066 ft | 454 kts | 178° |
| 2026-04-27 23:25 | 27.35053 | 113.68913 | 32379 ft | 456 kts | 178° |
| 2026-04-27 23:25 | 27.31919 | 113.69416 | 32694 ft | 458 kts | 178° |
| 2026-04-27 23:25 | 27.28735 | 113.69925 | 33125 ft | 457 kts | 178° |
| 2026-04-27 23:26 | 27.25592 | 113.70430 | 33614 ft | 455 kts | 178° |
| 2026-04-27 23:26 | 27.22443 | 113.70931 | 34020 ft | 455 kts | 178° |
| 2026-04-27 23:26 | 27.19282 | 113.71437 | 34360 ft | 457 kts | 178° |
| 2026-04-27 23:26 | 27.16115 | 113.71944 | 34705 ft | 457 kts | 178° |
| 2026-04-27 23:27 | 27.12990 | 113.72443 | 34990 ft | 458 kts | 178° |
| 2026-04-27 23:27 | 27.09809 | 113.72952 | 35009 ft | 459 kts | 178° |
| 2026-04-27 23:27 | 27.03454 | 113.73968 | 35007 ft | 458 kts | 178° |
| 2026-04-27 23:28 | 26.97116 | 113.74977 | 35008 ft | 458 kts | 178° |
| 2026-04-27 23:28 | 26.90783 | 113.75984 | 35018 ft | 458 kts | 178° |
| 2026-04-27 23:29 | 26.84449 | 113.76990 | 35027 ft | 459 kts | 178° |
| 2026-04-27 23:29 | 26.78075 | 113.78003 | 35040 ft | 458 kts | 178° |
| 2026-04-27 23:30 | 26.71806 | 113.79378 | 35057 ft | 461 kts | 171° |
| 2026-04-27 23:30 | 26.65685 | 113.81278 | 35050 ft | 461 kts | 169° |
| 2026-04-27 23:31 | 26.59469 | 113.83231 | 35063 ft | 461 kts | 170° |
| 2026-04-27 23:31 | 26.53276 | 113.85169 | 35060 ft | 461 kts | 170° |
| 2026-04-27 23:32 | 26.47193 | 113.87033 | 35069 ft | 459 kts | 171° |
| 2026-04-27 23:32 | 26.40971 | 113.88826 | 35084 ft | 460 kts | 171° |
| 2026-04-27 23:33 | 26.34964 | 113.90551 | 35093 ft | 459 kts | 170° |
| 2026-04-27 23:33 | 26.28921 | 113.92292 | 35122 ft | 459 kts | 170° |
| 2026-04-27 23:34 | 26.22718 | 113.94081 | 35145 ft | 459 kts | 170° |
| 2026-04-27 23:34 | 26.16523 | 113.95867 | 35161 ft | 458 kts | 170° |
| 2026-04-27 23:35 | 26.10408 | 113.97622 | 35170 ft | 457 kts | 171° |
| 2026-04-27 23:35 | 26.04177 | 113.98828 | 35173 ft | 453 kts | 179° |
| 2026-04-27 23:36 | 25.97876 | 113.99081 | 35166 ft | 449 kts | 187° |
| 2026-04-27 23:36 | 25.91656 | 113.98393 | 35059 ft | 447 kts | 193° |
| 2026-04-27 23:37 | 25.88573 | 113.97862 | 34572 ft | 449 kts | 194° |
| 2026-04-27 23:37 | 25.85487 | 113.97321 | 34038 ft | 449 kts | 193° |
| 2026-04-27 23:37 | 25.82404 | 113.96781 | 33482 ft | 449 kts | 193° |
| 2026-04-27 23:37 | 25.79480 | 113.96272 | 32991 ft | 447 kts | 193° |
| 2026-04-27 23:38 | 25.76448 | 113.95749 | 32643 ft | 441 kts | 193° |
| 2026-04-27 23:38 | 25.73420 | 113.95228 | 32287 ft | 436 kts | 193° |
| 2026-04-27 23:38 | 25.70425 | 113.94710 | 31893 ft | 432 kts | 193° |
| 2026-04-27 23:38 | 25.67448 | 113.94196 | 31499 ft | 429 kts | 193° |
| 2026-04-27 23:39 | 25.64523 | 113.93691 | 31118 ft | 425 kts | 193° |
| 2026-04-27 23:39 | 25.61629 | 113.93192 | 30729 ft | 422 kts | 193° |
| 2026-04-27 23:39 | 25.58724 | 113.92692 | 30347 ft | 418 kts | 193° |
| 2026-04-27 23:39 | 25.55844 | 113.92196 | 29967 ft | 415 kts | 193° |
| 2026-04-27 23:40 | 25.53007 | 113.91707 | 29596 ft | 412 kts | 193° |
| 2026-04-27 23:40 | 25.50177 | 113.91219 | 29210 ft | 409 kts | 193° |
| 2026-04-27 23:40 | 25.47377 | 113.90736 | 28813 ft | 407 kts | 193° |
| 2026-04-27 23:40 | 25.44574 | 113.90254 | 28444 ft | 405 kts | 193° |
| 2026-04-27 23:41 | 25.41811 | 113.89780 | 28098 ft | 402 kts | 193° |
| 2026-04-27 23:41 | 25.39034 | 113.89302 | 27766 ft | 399 kts | 192° |
| 2026-04-27 23:41 | 25.36287 | 113.88831 | 27409 ft | 396 kts | 192° |
| 2026-04-27 23:41 | 25.33573 | 113.88365 | 27071 ft | 393 kts | 192° |
| 2026-04-27 23:42 | 25.30890 | 113.87904 | 26729 ft | 391 kts | 192° |
| 2026-04-27 23:42 | 25.28193 | 113.87441 | 26400 ft | 388 kts | 192° |
| 2026-04-27 23:42 | 25.25520 | 113.86984 | 26063 ft | 385 kts | 192° |
| 2026-04-27 23:42 | 25.22883 | 113.86532 | 25720 ft | 383 kts | 192° |
| 2026-04-27 23:43 | 25.20267 | 113.86083 | 25365 ft | 381 kts | 192° |
| 2026-04-27 23:43 | 25.17643 | 113.85632 | 25012 ft | 379 kts | 192° |
| 2026-04-27 23:43 | 25.15030 | 113.85187 | 24674 ft | 377 kts | 192° |
| 2026-04-27 23:43 | 25.12435 | 113.84744 | 24341 ft | 375 kts | 192° |
| 2026-04-27 23:44 | 25.09890 | 113.84312 | 24014 ft | 372 kts | 192° |
| 2026-04-27 23:44 | 25.07307 | 113.83873 | 23685 ft | 370 kts | 192° |
| 2026-04-27 23:44 | 25.04768 | 113.83441 | 23356 ft | 368 kts | 192° |
| 2026-04-27 23:44 | 25.02246 | 113.83011 | 23035 ft | 366 kts | 192° |
| 2026-04-27 23:45 | 24.99740 | 113.82584 | 22696 ft | 364 kts | 191° |
| 2026-04-27 23:45 | 24.97232 | 113.82158 | 22365 ft | 363 kts | 191° |
| 2026-04-27 23:45 | 24.94714 | 113.81729 | 22043 ft | 361 kts | 191° |
| 2026-04-27 23:45 | 24.92263 | 113.81313 | 21721 ft | 359 kts | 191° |
| 2026-04-27 23:46 | 24.89778 | 113.80890 | 21387 ft | 358 kts | 191° |
| 2026-04-27 23:46 | 24.87277 | 113.80465 | 21063 ft | 356 kts | 192° |
| 2026-04-27 23:46 | 24.84799 | 113.80043 | 20729 ft | 355 kts | 191° |
| 2026-04-27 23:46 | 24.82352 | 113.79627 | 20396 ft | 354 kts | 191° |
| 2026-04-27 23:47 | 24.79944 | 113.79218 | 20085 ft | 352 kts | 191° |
| 2026-04-27 23:47 | 24.77522 | 113.78805 | 19764 ft | 351 kts | 191° |
| 2026-04-27 23:47 | 24.75100 | 113.78395 | 19449 ft | 349 kts | 191° |
| 2026-04-27 23:47 | 24.72708 | 113.77989 | 19142 ft | 347 kts | 191° |
| 2026-04-27 23:48 | 24.70313 | 113.77583 | 18839 ft | 345 kts | 191° |
| 2026-04-27 23:48 | 24.67964 | 113.77184 | 18525 ft | 343 kts | 191° |
| 2026-04-27 23:48 | 24.65586 | 113.76783 | 18217 ft | 341 kts | 191° |
| 2026-04-27 23:48 | 24.63249 | 113.76388 | 17922 ft | 339 kts | 191° |
| 2026-04-27 23:49 | 24.60927 | 113.75994 | 17617 ft | 337 kts | 191° |
| 2026-04-27 23:49 | 24.58603 | 113.75601 | 17327 ft | 335 kts | 191° |
| 2026-04-27 23:49 | 24.56278 | 113.75206 | 17015 ft | 333 kts | 191° |
| 2026-04-27 23:49 | 24.54001 | 113.74822 | 16715 ft | 331 kts | 191° |
| 2026-04-27 23:50 | 24.51734 | 113.74438 | 16402 ft | 329 kts | 191° |
| 2026-04-27 23:50 | 24.49652 | 113.74085 | 16130 ft | 327 kts | 191° |
| 2026-04-27 23:50 | 24.47430 | 113.73708 | 15829 ft | 326 kts | 191° |
| 2026-04-27 23:50 | 24.45176 | 113.73326 | 15513 ft | 325 kts | 191° |
| 2026-04-27 23:51 | 24.42948 | 113.72951 | 15212 ft | 323 kts | 191° |
| 2026-04-27 23:51 | 24.40721 | 113.72575 | 14902 ft | 321 kts | 191° |
| 2026-04-27 23:51 | 24.38501 | 113.72200 | 14588 ft | 320 kts | 191° |
| 2026-04-27 23:51 | 24.36295 | 113.71829 | 14278 ft | 319 kts | 191° |
| 2026-04-27 23:52 | 24.34100 | 113.71461 | 13971 ft | 317 kts | 193° |
| 2026-04-27 23:52 | 24.32005 | 113.70791 | 13655 ft | 312 kts | 206° |
| 2026-04-27 23:52 | 24.30139 | 113.69608 | 13358 ft | 308 kts | 218° |
| 2026-04-27 23:52 | 24.28461 | 113.68166 | 13087 ft | 305 kts | 220° |
| 2026-04-27 23:53 | 24.26825 | 113.66711 | 12793 ft | 303 kts | 221° |
| 2026-04-27 23:53 | 24.25167 | 113.65235 | 12511 ft | 301 kts | 220° |
| 2026-04-27 23:53 | 24.23545 | 113.63800 | 12250 ft | 298 kts | 220° |
| 2026-04-27 23:53 | 24.21932 | 113.62379 | 11967 ft | 296 kts | 220° |
| 2026-04-27 23:54 | 24.20326 | 113.60966 | 11674 ft | 295 kts | 220° |
| 2026-04-27 23:54 | 24.18725 | 113.59560 | 11384 ft | 293 kts | 220° |
| 2026-04-27 23:54 | 24.17132 | 113.58161 | 11095 ft | 292 kts | 220° |
| 2026-04-27 23:54 | 24.15551 | 113.56776 | 10813 ft | 291 kts | 220° |
| 2026-04-27 23:55 | 24.13963 | 113.55382 | 10527 ft | 289 kts | 220° |
| 2026-04-27 23:55 | 24.12416 | 113.54026 | 10239 ft | 288 kts | 220° |
| 2026-04-27 23:55 | 24.10849 | 113.52652 | 10069 ft | 281 kts | 220° |
| 2026-04-27 23:55 | 24.09363 | 113.51350 | 10067 ft | 269 kts | 220° |
| 2026-04-27 23:56 | 24.07958 | 113.50118 | 9975 ft | 262 kts | 220° |
| 2026-04-27 23:56 | 24.06516 | 113.48853 | 9687 ft | 262 kts | 220° |
| 2026-04-27 23:56 | 24.05177 | 113.47681 | 9431 ft | 262 kts | 220° |
| 2026-04-27 23:56 | 24.03750 | 113.46428 | 9173 ft | 260 kts | 220° |
| 2026-04-27 23:57 | 24.02273 | 113.45297 | 8923 ft | 259 kts | 210° |
| 2026-04-27 23:57 | 24.00623 | 113.44540 | 8683 ft | 259 kts | 199° |
| 2026-04-27 23:57 | 23.99069 | 113.44083 | 8463 ft | 258 kts | 197° |
| 2026-04-27 23:57 | 23.97333 | 113.43615 | 8424 ft | 247 kts | 196° |
| 2026-04-27 23:58 | 23.95663 | 113.43168 | 8402 ft | 237 kts | 196° |
| 2026-04-27 23:58 | 23.94064 | 113.42738 | 8375 ft | 232 kts | 197° |
| 2026-04-27 23:58 | 23.92483 | 113.42309 | 8343 ft | 234 kts | 197° |
| 2026-04-27 23:58 | 23.90912 | 113.41881 | 8263 ft | 235 kts | 197° |
| 2026-04-27 23:59 | 23.89304 | 113.41441 | 8001 ft | 236 kts | 196° |
| 2026-04-27 23:59 | 23.87712 | 113.41007 | 7750 ft | 236 kts | 196° |
| 2026-04-27 23:59 | 23.86120 | 113.40575 | 7509 ft | 237 kts | 196° |
| 2026-04-27 23:59 | 23.84510 | 113.40137 | 7267 ft | 236 kts | 195° |
| 2026-04-28 00:00 | 23.82908 | 113.39701 | 7024 ft | 237 kts | 195° |
| 2026-04-28 00:00 | 23.81292 | 113.39262 | 6779 ft | 237 kts | 195° |
| 2026-04-28 00:00 | 23.79688 | 113.38825 | 6586 ft | 235 kts | 195° |
| 2026-04-28 00:00 | 23.78109 | 113.38398 | 6388 ft | 233 kts | 195° |
| 2026-04-28 00:01 | 23.76536 | 113.37971 | 6146 ft | 233 kts | 195° |
| 2026-04-28 00:01 | 23.74961 | 113.37543 | 5958 ft | 231 kts | 194° |
| 2026-04-28 00:01 | 23.73458 | 113.37134 | 5929 ft | 222 kts | 195° |
| 2026-04-28 00:01 | 23.71960 | 113.36724 | 5922 ft | 223 kts | 195° |
| 2026-04-28 00:02 | 23.70436 | 113.36295 | 5706 ft | 226 kts | 195° |
| 2026-04-28 00:02 | 23.68894 | 113.35861 | 5416 ft | 229 kts | 194° |
| 2026-04-28 00:02 | 23.67340 | 113.35432 | 5115 ft | 233 kts | 194° |
| 2026-04-28 00:02 | 23.65748 | 113.34996 | 4808 ft | 235 kts | 192° |
| 2026-04-28 00:03 | 23.64140 | 113.34559 | 4508 ft | 238 kts | 192° |
| 2026-04-28 00:03 | 23.62501 | 113.34117 | 4199 ft | 241 kts | 192° |
| 2026-04-28 00:03 | 23.60857 | 113.33674 | 3888 ft | 244 kts | 192° |
| 2026-04-28 00:03 | 23.59181 | 113.33222 | 3568 ft | 248 kts | 191° |
| 2026-04-28 00:04 | 23.57510 | 113.32773 | 3247 ft | 251 kts | 191° |
| 2026-04-28 00:04 | 23.54078 | 113.31847 | 2578 ft | 248 kts | 191° |
| 2026-04-28 00:04 | 23.52445 | 113.31405 | 2278 ft | 236 kts | 191° |
| 2026-04-28 00:05 | 23.50878 | 113.30982 | 1971 ft | 223 kts | 191° |
| 2026-04-28 00:05 | 23.49411 | 113.30586 | 1685 ft | 210 kts | 191° |
| 2026-04-28 00:05 | 23.48023 | 113.30212 | 1412 ft | 198 kts | 191° |
| 2026-04-28 00:05 | 23.46722 | 113.29861 | 1175 ft | 186 kts | 191° |
| 2026-04-28 00:06 | 23.45487 | 113.29528 | 955 ft | 178 kts | 191° |
| 2026-04-28 00:06 | 23.44287 | 113.29205 | 720 ft | 172 kts | 191° |
| 2026-04-28 00:06 | 23.43144 | 113.28896 | 503 ft | 166 kts | 191° |
| 2026-04-28 00:06 | 23.42025 | 113.28593 | 272 ft | 162 kts | 191° |
| 2026-04-28 00:07 | 23.40948 | 113.28310 | 79 ft | 156 kts | 192° |
| 2026-04-28 00:07 | 23.40039 | 113.28064 | 62 ft | 95 kts | 190° |
| 2026-04-28 00:07 | 23.39663 | 113.27959 | 62 ft | 34 kts | 194° |
| 2026-04-28 00:07 | 23.39455 | 113.27905 | 62 ft | 22 kts | 195° |
| 2026-04-28 00:08 | 23.39299 | 113.27877 | 62 ft | 25 kts | 182° |
| 2026-04-28 00:08 | 23.39116 | 113.27902 | 62 ft | 22 kts | 164° |